createdAt,value
2019-02-14T00:01:52.370Z,98.50
2019-02-14T00:04:21.864Z,98.60
2019-02-14T00:06:50.775Z,98.60
2019-02-14T00:09:19.706Z,98.60
2019-02-14T00:11:48.971Z,98.50
2019-02-14T00:14:18.201Z,98.50
2019-02-14T00:16:47.243Z,98.50
2019-02-14T00:19:16.201Z,98.50
2019-02-14T00:21:45.501Z,98.50
2019-02-14T00:24:14.410Z,98.50
2019-02-14T00:26:43.432Z,98.50
2019-02-14T00:29:12.505Z,98.40
2019-02-14T00:31:41.454Z,98.20
2019-02-14T00:34:10.660Z,98.40
2019-02-14T00:36:39.757Z,98.40
2019-02-14T00:39:08.676Z,98.50
2019-02-14T00:41:38.591Z,98.60
2019-02-14T00:44:07.763Z,98.60
2019-02-14T00:46:37.809Z,98.60
2019-02-14T00:49:07.008Z,98.60
2019-02-14T00:51:36.033Z,99.00
2019-02-14T00:54:05.080Z,98.70
2019-02-14T00:56:34.528Z,98.70
2019-02-14T00:59:03.521Z,98.70
2019-02-14T01:01:32.599Z,98.70
2019-02-14T01:04:01.542Z,98.60
2019-02-14T01:06:30.599Z,98.60
2019-02-14T01:09:00.068Z,98.60
2019-02-14T01:11:29.397Z,98.60
2019-02-14T01:13:59.128Z,98.60
2019-02-14T01:16:28.408Z,98.60
2019-02-14T01:18:57.538Z,98.60
2019-02-14T01:21:27.133Z,98.50
2019-02-14T01:23:56.058Z,98.60
2019-02-14T01:26:29.368Z,98.60
2019-02-14T01:28:58.375Z,98.60
2019-02-14T01:31:27.411Z,98.50
2019-02-14T01:33:56.339Z,98.50
2019-02-14T01:36:25.716Z,98.50
2019-02-14T01:38:54.940Z,98.50
2019-02-14T01:41:24.995Z,98.50
2019-02-14T01:43:54.422Z,98.50
2019-02-14T01:46:23.760Z,98.50
2019-02-14T01:48:53.104Z,98.60
2019-02-14T01:51:22.153Z,98.60
2019-02-14T01:53:51.709Z,98.60
2019-02-14T01:56:27.053Z,98.50
2019-02-14T01:58:56.291Z,98.60
2019-02-14T02:01:25.559Z,98.60
2019-02-14T02:03:54.908Z,98.60
2019-02-14T02:06:23.965Z,98.50
2019-02-14T02:08:52.966Z,98.60
2019-02-14T02:11:22.562Z,98.60
2019-02-14T02:13:51.996Z,98.60
2019-02-14T02:16:21.044Z,98.60
2019-02-14T02:18:50.003Z,98.60
2019-02-14T02:21:49.316Z,98.50
2019-02-14T02:24:18.387Z,98.50
2019-02-14T02:26:47.515Z,98.50
2019-02-14T02:29:16.665Z,98.50
2019-02-14T02:31:45.645Z,98.50
2019-02-14T02:34:14.543Z,98.50
2019-02-14T02:36:44.337Z,98.50
2019-02-14T02:39:16.451Z,98.60
2019-02-14T02:41:46.181Z,98.60
2019-02-14T02:44:15.487Z,98.50
2019-02-14T02:47:05.508Z,98.50
2019-02-14T02:49:34.551Z,98.90
2019-02-14T02:52:03.588Z,98.50
2019-02-14T02:54:32.817Z,98.60
2019-02-14T02:57:01.890Z,98.50
2019-02-14T02:59:30.928Z,98.60
2019-02-14T03:02:03.091Z,98.50
2019-02-14T03:04:32.383Z,98.60
2019-02-14T03:07:01.385Z,98.60
2019-02-14T03:09:30.360Z,98.60
2019-02-14T03:11:59.383Z,98.60
2019-02-14T03:14:28.406Z,98.60
2019-02-14T03:16:57.325Z,98.70
2019-02-14T03:19:26.195Z,98.70
2019-02-14T03:21:55.353Z,98.70
2019-02-14T03:24:24.365Z,98.70
2019-02-14T03:26:54.175Z,98.70
2019-02-14T03:29:23.368Z,98.70
2019-02-14T03:31:53.084Z,98.70
2019-02-14T03:34:22.256Z,98.70
2019-02-14T03:36:51.612Z,98.70
2019-02-14T03:39:21.222Z,98.60
2019-02-14T03:41:50.569Z,98.60
2019-02-14T03:44:19.701Z,98.50
2019-02-14T03:46:48.995Z,98.60
2019-02-14T03:49:42.858Z,98.60
2019-02-14T03:52:12.134Z,98.60
2019-02-14T03:54:41.149Z,98.60
2019-02-14T03:57:10.280Z,98.60
2019-02-14T03:59:39.396Z,98.60
2019-02-14T04:02:09.645Z,98.70
2019-02-14T04:04:39.256Z,98.70
2019-02-14T04:07:08.748Z,98.60
2019-02-14T04:09:38.078Z,98.60
2019-02-14T04:12:47.312Z,98.60
2019-02-14T04:15:16.782Z,98.60
2019-02-14T04:17:46.483Z,98.60
2019-02-14T04:20:15.496Z,98.60
2019-02-14T04:22:45.491Z,98.60
2019-02-14T04:25:22.815Z,98.60
2019-02-14T04:27:51.844Z,98.70
2019-02-14T04:30:20.768Z,98.70
2019-02-14T04:32:49.857Z,98.70
2019-02-14T04:35:18.900Z,98.70
2019-02-14T04:37:47.934Z,98.70
2019-02-14T04:40:16.951Z,98.70
2019-02-14T04:42:46.446Z,98.80
2019-02-14T04:45:15.930Z,98.70
2019-02-14T04:47:44.972Z,98.70
2019-02-14T04:50:14.040Z,98.70
2019-02-14T04:52:43.536Z,98.70
2019-02-14T04:55:13.126Z,98.80
2019-02-14T04:57:42.356Z,98.80
2019-02-14T05:00:12.114Z,98.80
2019-02-14T05:02:41.548Z,98.80
2019-02-14T05:05:10.676Z,98.90
2019-02-14T05:07:40.064Z,98.80
2019-02-14T05:10:09.246Z,99.00
2019-02-14T05:12:38.602Z,98.70
2019-02-14T05:15:07.710Z,98.70
2019-02-14T05:17:51.236Z,98.60
2019-02-14T05:20:20.518Z,98.60
2019-02-14T05:22:49.848Z,98.60
2019-02-14T05:25:40.785Z,98.60
2019-02-14T05:28:10.429Z,98.60
2019-02-14T05:34:20.753Z,98.70
2019-02-14T05:37:00.014Z,98.60
2019-02-14T05:39:33.481Z,98.60
2019-02-14T05:45:28.685Z,98.50
2019-02-14T05:59:26.638Z,98.70
2019-02-14T06:01:56.963Z,98.70
2019-02-14T06:04:26.747Z,98.70
2019-02-14T06:07:01.153Z,98.70
2019-02-14T06:09:27.102Z,98.60
2019-02-14T06:12:06.501Z,98.60
2019-02-14T06:14:41.241Z,98.70
2019-02-14T06:17:10.996Z,98.70
2019-02-14T06:19:43.485Z,98.70
2019-02-14T06:22:15.832Z,98.80
2019-02-14T06:24:57.978Z,98.80
2019-02-14T06:27:27.584Z,98.70
2019-02-14T06:29:57.007Z,98.70
2019-02-14T06:32:26.758Z,98.70
2019-02-14T06:34:59.489Z,98.70
2019-02-14T06:37:29.774Z,98.70
2019-02-14T06:39:59.383Z,98.70
2019-02-14T06:42:28.838Z,98.70
2019-02-14T06:44:58.267Z,98.70
2019-02-14T06:47:27.684Z,98.70
2019-02-14T06:49:57.095Z,98.70
2019-02-14T06:52:26.651Z,98.60
2019-02-14T06:54:55.963Z,98.60
2019-02-14T06:57:26.403Z,98.70
2019-02-14T07:00:01.737Z,98.70
2019-02-14T07:05:32.207Z,98.70
2019-02-14T07:10:37.256Z,98.70
2019-02-14T07:13:12.041Z,98.60
2019-02-14T07:15:41.923Z,98.60
2019-02-14T07:18:13.858Z,98.70
2019-02-14T07:28:12.120Z,98.80
2019-02-14T07:30:46.370Z,98.80
2019-02-14T07:37:26.888Z,98.70
2019-02-14T07:39:51.399Z,98.70
2019-02-14T07:42:21.441Z,98.60
2019-02-14T07:44:50.974Z,98.50
2019-02-14T07:47:20.271Z,98.50
2019-02-14T07:49:50.273Z,98.50
2019-02-14T07:53:13.181Z,98.50
2019-02-14T07:55:42.447Z,98.50
2019-02-14T07:58:12.083Z,98.40
2019-02-14T08:00:41.531Z,98.40
2019-02-14T08:03:10.859Z,98.40
2019-02-14T08:09:21.949Z,98.30
2019-02-14T08:11:51.947Z,98.20
2019-02-14T08:14:25.811Z,98.10
2019-02-14T08:16:55.310Z,98.10
2019-02-14T08:23:10.629Z,98.10
2019-02-14T08:28:30.923Z,97.90
2019-02-14T08:41:43.061Z,97.80
2019-02-14T08:47:55.343Z,97.70
2019-02-14T08:50:41.433Z,97.60
2019-02-14T08:53:11.303Z,97.60
2019-02-14T08:59:27.532Z,97.60
2019-02-14T09:01:58.906Z,97.50
2019-02-14T09:31:35.615Z,97.20
2019-02-14T09:34:08.694Z,97.20
2019-02-14T09:39:41.041Z,97.10
2019-02-14T09:42:13.113Z,97.00
2019-02-14T09:47:40.372Z,97.10
2019-02-14T09:50:11.174Z,97.00
2019-02-14T09:52:40.949Z,97.00
2019-02-14T09:55:10.828Z,96.90
2019-02-14T09:57:40.517Z,96.90
2019-02-14T10:00:12.735Z,96.90
2019-02-14T10:02:42.808Z,96.90
2019-02-14T10:07:58.442Z,96.80
2019-02-14T10:10:31.542Z,96.70
2019-02-14T10:13:00.665Z,96.70
2019-02-14T10:15:30.079Z,96.60
2019-02-14T10:17:59.790Z,96.60
2019-02-14T10:20:29.026Z,96.60
2019-02-14T10:22:59.575Z,96.70
2019-02-14T10:25:30.592Z,96.70
2019-02-14T10:34:22.735Z,96.60
2019-02-14T10:36:54.071Z,96.50
2019-02-14T10:51:19.164Z,96.10
2019-02-14T10:59:15.759Z,96.00
2019-02-14T11:15:12.110Z,96.00
2019-02-14T11:17:41.742Z,95.90
2019-02-14T11:24:48.041Z,95.90
2019-02-14T11:35:10.016Z,95.40
2019-02-14T11:37:44.836Z,95.30
2019-02-14T11:40:14.168Z,95.20
2019-02-14T11:42:48.890Z,95.00
2019-02-14T11:45:19.097Z,94.90
2019-02-14T11:47:48.419Z,94.80
2019-02-14T11:50:17.666Z,94.70
2019-02-14T11:52:47.505Z,94.60
2019-02-14T11:55:16.731Z,94.40
2019-02-14T11:58:16.255Z,94.30
2019-02-14T12:00:45.867Z,94.20
2019-02-14T12:03:15.116Z,94.20
2019-02-14T12:05:44.366Z,94.30
2019-02-14T12:08:13.614Z,94.30
2019-02-14T12:10:42.920Z,94.30
2019-02-14T12:13:12.138Z,94.10
2019-02-14T12:15:41.577Z,94.30
2019-02-14T12:18:10.809Z,93.90
2019-02-14T12:20:40.418Z,94.00
2019-02-14T12:23:13.833Z,94.10
2019-02-14T12:25:43.293Z,94.00
2019-02-14T12:28:13.363Z,93.90
2019-02-14T12:31:03.498Z,93.30
2019-02-14T12:37:16.012Z,93.40
2019-02-14T12:39:48.015Z,93.20
2019-02-14T12:42:17.429Z,93.30
2019-02-14T12:44:47.076Z,93.10
2019-02-14T12:47:16.687Z,93.40
2019-02-14T12:49:48.167Z,92.80
2019-02-14T12:52:17.609Z,92.50
2019-02-14T12:54:47.097Z,92.50
2019-02-14T12:57:16.486Z,92.30
2019-02-14T12:59:46.423Z,92.40
2019-02-14T13:02:16.075Z,92.30
2019-02-14T13:05:19.103Z,92.20
2019-02-14T13:07:48.313Z,92.10
2019-02-14T13:10:17.753Z,91.80
2019-02-14T13:12:47.647Z,91.60
2019-02-14T13:15:18.775Z,91.50
2019-02-14T13:21:29.592Z,91.50
2019-02-14T13:23:59.032Z,91.10
2019-02-14T13:26:28.370Z,91.10
2019-02-14T13:32:38.900Z,91.10
2019-02-14T13:35:08.325Z,91.00
2019-02-14T13:37:39.871Z,91.10
2019-02-14T13:43:49.738Z,91.10
2019-02-14T13:46:19.319Z,90.50
2019-02-14T13:48:48.662Z,90.30
2019-02-14T13:51:18.014Z,90.20
2019-02-14T13:53:49.521Z,90.20
2019-02-14T13:56:18.809Z,90.10
2019-02-14T13:58:48.200Z,90.20
2019-02-14T14:01:17.604Z,90.30
2019-02-14T14:03:46.971Z,90.30
2019-02-14T14:06:16.316Z,90.20
2019-02-14T14:08:46.330Z,90.20
2019-02-14T14:14:59.148Z,90.30
2019-02-14T14:17:32.878Z,90.10
2019-02-14T14:20:03.100Z,90.00
2019-02-14T14:22:34.458Z,89.50
2019-02-14T14:28:46.150Z,86.70
2019-02-14T14:31:47.604Z,86.80
2019-02-14T14:38:04.778Z,87.70
2019-02-14T14:40:34.025Z,87.80
2019-02-14T14:43:34.583Z,87.90
2019-02-14T14:46:18.243Z,87.80
2019-02-14T14:48:47.511Z,87.60
2019-02-14T14:51:17.535Z,87.30
2019-02-14T14:54:08.258Z,86.30
2019-02-14T14:56:37.486Z,86.30
2019-02-14T14:59:06.518Z,84.90
2019-02-14T15:01:36.089Z,82.80
2019-02-14T15:04:05.095Z,82.70
2019-02-14T15:06:34.476Z,82.60
2019-02-14T15:09:03.568Z,82.80
2019-02-14T15:14:07.577Z,82.90
2019-02-14T15:16:36.571Z,83.30
2019-02-14T15:19:06.260Z,82.30
2019-02-14T15:22:21.533Z,83.40
2019-02-14T15:24:51.610Z,83.20
2019-02-14T15:27:20.811Z,84.10
2019-02-14T15:30:39.448Z,84.60
2019-02-14T15:34:01.689Z,84.70
2019-02-14T15:36:34.091Z,84.10
2019-02-14T15:42:44.544Z,84.20
2019-02-14T15:48:55.246Z,83.90
2019-02-14T15:51:24.706Z,84.30
2019-02-14T15:53:53.858Z,84.50
2019-02-14T15:56:23.360Z,84.80
2019-02-14T15:58:54.689Z,84.70
2019-02-14T16:02:47.910Z,84.80
2019-02-14T16:05:40.749Z,85.00
2019-02-14T16:11:53.165Z,85.20
2019-02-14T16:14:23.805Z,85.20
2019-02-14T16:20:34.195Z,86.50
2019-02-14T16:23:04.135Z,86.70
2019-02-14T16:25:34.349Z,86.60
2019-02-14T16:28:03.629Z,86.60
2019-02-14T16:30:33.410Z,86.90
2019-02-14T16:33:03.421Z,86.80
2019-02-14T16:35:33.134Z,87.00
2019-02-14T16:38:02.666Z,86.90
2019-02-14T16:40:38.352Z,87.00
2019-02-14T16:43:25.549Z,87.10
2019-02-14T16:46:00.841Z,87.20
2019-02-14T16:52:27.950Z,87.30
2019-02-14T17:02:23.492Z,87.20
2019-02-14T17:08:34.474Z,87.40
2019-02-14T17:11:59.254Z,87.50
2019-02-14T17:17:02.921Z,87.60
2019-02-14T17:19:38.657Z,87.70
2019-02-14T17:22:12.773Z,87.70
2019-02-14T17:24:55.123Z,87.80
2019-02-14T17:32:56.254Z,88.20
2019-02-14T17:35:21.400Z,88.40
2019-02-14T17:37:53.470Z,88.40
2019-02-14T17:40:46.099Z,88.50
2019-02-14T17:48:57.061Z,88.70
2019-02-14T17:54:41.904Z,88.90
2019-02-14T17:57:11.416Z,88.90
2019-02-14T18:03:22.497Z,89.30
2019-02-14T18:08:31.038Z,89.30
2019-02-14T18:11:03.339Z,89.30
2019-02-14T18:13:36.837Z,89.20
2019-02-14T18:22:56.520Z,89.00
2019-02-14T18:26:05.926Z,89.10
2019-02-14T18:28:37.294Z,89.30
2019-02-14T18:31:06.718Z,89.30
2019-02-14T18:33:37.196Z,89.50
2019-02-14T18:40:13.000Z,90.00
2019-02-14T18:43:16.918Z,90.00
2019-02-14T18:45:47.003Z,90.30
2019-02-14T18:52:00.633Z,90.10
2019-02-14T18:54:29.832Z,90.00
2019-02-14T18:56:59.967Z,90.00
2019-02-14T18:59:29.214Z,90.00
2019-02-14T19:01:58.318Z,90.10
2019-02-14T19:04:27.833Z,90.10
2019-02-14T19:06:56.846Z,90.20
2019-02-14T19:09:25.991Z,90.20
2019-02-14T19:12:39.045Z,90.20
2019-02-14T19:15:09.001Z,90.30
2019-02-14T19:17:38.095Z,90.20
2019-02-14T19:20:07.816Z,90.20
2019-02-14T19:22:37.130Z,90.20
2019-02-14T19:25:06.925Z,90.30
2019-02-14T19:28:00.081Z,90.20
2019-02-14T19:30:54.059Z,90.30
2019-02-14T19:33:35.543Z,90.20
2019-02-14T19:36:05.241Z,90.30
2019-02-14T19:38:34.368Z,90.20
2019-02-14T19:41:04.036Z,90.30
2019-02-14T19:47:14.570Z,90.40
2019-02-14T19:49:44.108Z,90.30
2019-02-14T19:52:13.530Z,90.40
2019-02-14T19:54:42.856Z,90.40
2019-02-14T19:58:02.600Z,90.40
2019-02-14T20:00:31.808Z,90.50
2019-02-14T20:03:00.897Z,90.90
2019-02-14T20:05:29.914Z,90.60
2019-02-14T20:07:59.444Z,90.60
2019-02-14T20:10:28.985Z,90.60
2019-02-14T20:13:01.134Z,90.60
2019-02-14T20:15:36.878Z,90.60
2019-02-14T20:18:01.476Z,90.60
2019-02-14T20:20:30.535Z,90.60
2019-02-14T20:22:59.646Z,90.60
2019-02-14T20:25:28.776Z,90.60
2019-02-14T20:27:57.901Z,90.60
2019-02-14T20:30:27.242Z,90.60
2019-02-14T20:33:04.394Z,90.50
2019-02-14T20:35:27.741Z,90.40
2019-02-14T20:37:56.841Z,90.40
2019-02-14T20:40:25.974Z,90.40
2019-02-14T20:42:55.249Z,90.40
2019-02-14T20:49:05.576Z,90.50
2019-02-14T20:51:38.555Z,90.60
2019-02-14T20:54:05.782Z,90.60
2019-02-14T20:56:34.849Z,90.50
2019-02-14T20:59:04.041Z,90.40
2019-02-14T21:01:33.131Z,90.50
2019-02-14T21:04:02.276Z,90.40
2019-02-14T21:06:31.404Z,90.40
2019-02-14T21:09:01.363Z,90.30
2019-02-14T21:11:31.170Z,90.30
2019-02-14T21:14:00.697Z,90.30
2019-02-14T21:16:31.961Z,90.30
2019-02-14T21:19:02.396Z,90.30
2019-02-14T21:21:31.686Z,90.30
2019-02-14T21:24:00.784Z,90.40
2019-02-14T21:26:29.954Z,90.40
2019-02-14T21:29:00.072Z,90.30
2019-02-14T21:32:02.553Z,90.40
2019-02-14T21:34:31.759Z,90.40
2019-02-14T21:37:00.849Z,90.30
2019-02-14T21:39:41.352Z,90.30
2019-02-14T21:42:19.774Z,90.40
2019-02-14T21:44:41.566Z,90.40
2019-02-14T21:47:29.548Z,90.40
2019-02-14T21:49:58.689Z,90.40
2019-02-14T21:52:28.784Z,90.40
2019-02-14T21:54:58.277Z,90.40
2019-02-14T21:57:27.313Z,90.40
2019-02-14T21:59:56.356Z,90.30
2019-02-14T22:02:25.304Z,90.30
2019-02-14T22:04:54.569Z,90.30
2019-02-14T22:08:02.911Z,90.30
2019-02-14T22:10:32.052Z,90.30
2019-02-14T22:13:01.197Z,90.30
2019-02-14T22:15:30.386Z,90.30
2019-02-14T22:18:00.110Z,90.30
2019-02-14T22:20:53.386Z,90.30
2019-02-14T22:23:22.437Z,90.30
2019-02-14T22:25:51.424Z,90.20
2019-02-14T22:28:20.673Z,90.20
2019-02-14T22:30:49.934Z,90.20
2019-02-14T22:33:18.822Z,90.20
2019-02-14T22:35:48.245Z,90.00
2019-02-14T22:38:17.486Z,90.20
2019-02-14T22:40:46.785Z,90.20
2019-02-14T22:43:47.129Z,90.20
2019-02-14T22:46:16.278Z,90.20
2019-02-14T22:48:45.326Z,90.20
2019-02-14T22:51:14.826Z,90.20
2019-02-14T22:53:43.951Z,90.20
2019-02-14T22:56:13.251Z,90.20
2019-02-14T22:58:42.193Z,90.20
2019-02-14T23:01:11.914Z,90.30
2019-02-14T23:03:40.837Z,90.20
2019-02-14T23:06:09.913Z,90.20
2019-02-14T23:08:39.068Z,90.20
2019-02-14T23:11:08.149Z,90.30
2019-02-14T23:13:37.081Z,90.20
2019-02-14T23:16:06.373Z,90.20
2019-02-14T23:18:35.284Z,90.20
2019-02-14T23:21:04.425Z,90.20
2019-02-14T23:23:33.673Z,90.30
2019-02-14T23:26:03.736Z,90.30
2019-02-14T23:28:32.699Z,90.20
2019-02-14T23:31:01.728Z,90.30
2019-02-14T23:33:30.716Z,90.30
2019-02-14T23:35:59.701Z,90.30
2019-02-14T23:38:28.824Z,90.30
2019-02-14T23:40:57.784Z,90.30
2019-02-14T23:43:26.659Z,90.30
2019-02-14T23:45:55.652Z,90.30
2019-02-14T23:48:24.817Z,90.30
2019-02-14T23:50:53.851Z,90.30
2019-02-14T23:53:23.760Z,90.20
2019-02-14T23:55:52.772Z,90.30
2019-02-14T23:58:22.001Z,90.20
